EW1708 Weather Reports


Display with metric or nautical units.
time (UTC)temp
F
wind
direction
speed
MPH
gust
MPH
rain 1hr
in
rain 24hr
in
rain mn
in
humidity
%
barometer
mb
20230129231227 -10 308 9.0 11.0 0.00 0.00 0.00 73 1031.2
20230129225046 -9 325 9.0 12.0 0.00 0.00 0.00 72 1031.1
20230129224027 -9 311 8.0 13.0 0.00 0.00 0.00 72 1031.0
20230129223050 -10 324 8.0 14.0 0.00 0.00 0.00 73 1031.1
20230129222054 -8 305 10.0 16.0 0.00 0.00 0.00 73 1031.0
20230129221036 -8 304 10.0 18.0 0.00 0.00 0.00 73 1031.0
20230129220012 -8 311 10.0 18.0 0.00 0.00 0.00 73 1030.9
20230129214947 -8 335 11.0 18.0 0.00 0.00 0.00 73 1030.8
20230129214006 -8 322 13.0 21.0 0.00 0.00 0.00 74 1030.7
20230129211920 -9 289 13.0 17.0 0.00 0.00 0.00 75 1030.5
20230129205744 -9 306 10.0 17.0 0.00 0.00 0.00 74 1030.6
20230129204736 -9 323 11.0 18.0 0.00 0.00 0.00 74 1030.6
20230129203728 -9 304 12.0 19.0 0.00 0.00 0.00 74 1030.6
20230129202700 -9 308 14.0 21.0 0.00 0.00 0.00 74 1030.6
20230129201627 -9 313 13.0 21.0 0.00 0.00 0.00 74 1030.7
20230129200617 -7 332 12.0 19.0 0.00 0.00 0.00 76 1030.7
20230129195630 -7 312 13.0 19.0 0.00 0.00 0.00 76 1030.7
20230129194617 -7 325 13.0 18.0 0.00 0.00 0.00 77 1030.8
20230129193622 -8 0 13.0 19.0 0.00 0.00 0.00 76 1030.6
20230129192601 -8 310 9.0 16.0 0.00 0.00 0.00 76 1030.8
20230129190421 -8 313 8.0 13.0 0.00 0.00 0.00 77 1030.9
20230129185435 -7 317 9.0 14.0 0.00 0.00 0.00 77 1031.0
20230129184432 -7 313 10.0 15.0 0.00 0.00 0.00 77 1031.1
20230129183443 -7 314 11.0 16.0 0.00 0.00 0.00 77 1031.2
20230129182445 -7 317 11.0 16.0 0.00 0.00 0.00 77 1031.2
20230129181435 -7 323 14.0 16.0 0.00 0.00 0.00 77 1031.2
20230129180405 -8 306 11.0 15.0 0.00 0.00 0.00 77 1031.3
20230129175348 -6 321 8.0 12.0 0.00 0.00 0.00 78 1031.3
20230129174408 -7 318 6.0 10.0 0.00 0.00 0.00 78 1031.2
20230129173413 -6 329 6.0 11.0 0.00 0.00 0.00 79 1031.1
20230129172425 -7 298 7.0 11.0 0.00 0.00 0.00 79 1031.0
20230129165144 -6 317 6.0 11.0 0.00 0.00 0.00 79 1030.9
20230129163006 -7 289 6.0 9.0 0.00 0.00 0.00 80 1030.7
20230129162017 -8 285 6.0 8.0 0.00 0.00 0.00 79 1030.7
20230129161028 -8 290 5.0 8.0 0.00 0.00 0.00 79 1030.6
20230129160007 -8 293 6.0 9.0 0.00 0.00 0.00 79 1030.4
20230129155007 -10 300 7.0 9.0 0.00 0.00 0.00 79 1030.2
20230129153952 -9 303 8.0 10.0 0.00 0.00 0.00 79 1030.1
20230129150706 -10 295 4.0 6.0 0.00 0.00 0.00 79 1029.8
20230129145640 -10 282 5.0 6.0 0.00 0.00 0.00 79 1029.8
20230129143514 -7 281 5.0 10.0 0.00 0.00 0.00 79 1029.7
20230129142533 -8 290 7.0 10.0 0.00 0.00 0.00 79 1029.6
20230129141536 -6 290 6.0 9.0 0.00 0.00 0.00 80 1029.6
20230129140556 -6 291 6.0 9.0 0.00 0.00 0.00 80 1029.5
20230129135547 -5 281 7.0 9.0 0.00 0.00 0.00 80 1029.6
20230129134514 -5 281 6.0 9.0 0.00 0.00 0.00 80 1029.5
20230129132333 -5 281 7.0 10.0 0.00 0.00 0.00 80 1029.3
20230129131330 -5 276 6.0 8.0 0.00 0.00 0.00 80 1029.3
20230129125158 -7 274 4.0 8.0 0.00 0.00 0.00 80 1029.3
20230129123123 -7 285 5.0 7.0 0.00 0.00 0.00 80 1029.2
20230129122147 -7 284 4.0 6.0 0.00 0.00 0.00 80 1029.2
20230129121119 -7 278 5.0 8.0 0.00 0.00 0.00 80 1029.1
20230129120109 -5 285 6.0 8.0 0.00 0.00 0.00 80 1029.2
20230129115041 -5 268 6.0 9.0 0.00 0.00 0.00 80 1029.3
20230129111737 -5 294 7.0 11.0 0.00 0.00 0.00 80 1029.1
20230129105611 -3 299 9.0 13.0 0.00 0.00 0.00 80 1029.1
20230129104554 -3 307 10.0 13.0 0.00 0.00 0.00 80 1029.1
20230129103549 -4 300 10.0 13.0 0.00 0.00 0.00 80 1029.2
20230129102521 -4 298 8.0 12.0 0.00 0.00 0.00 80 1029.1
20230129100357 -4 279 8.0 13.0 0.00 0.00 0.00 80 1029.2
20230129095407 -4 266 8.0 12.0 0.00 0.00 0.00 80 1029.2
20230129094333 -4 269 10.0 13.0 0.00 0.00 0.00 80 1029.3
20230129093320 -3 272 10.0 15.0 0.00 0.00 0.00 79 1029.3
20230129092319 -3 281 11.0 15.0 0.00 0.00 0.00 79 1029.3
20230129091317 -3 269 11.0 15.0 0.00 0.00 0.00 79 1029.3
20230129090250 -3 272 12.0 16.0 0.00 0.00 0.00 79 1029.4
20230129084156 -4 265 10.0 14.0 0.00 0.00 0.00 79 1029.3
20230129083131 -6 272 9.0 13.0 0.00 0.00 0.00 79 1029.1
20230129082149 -5 258 7.0 11.0 0.00 0.00 0.00 79 1029.3
20230129075947 -6 261 9.0 15.0 0.00 0.00 0.00 79 1029.3
20230129073841 -9 289 8.0 12.0 0.00 0.00 0.00 78 1029.4
20230129072822 -11 264 8.0 11.0 0.00 0.00 0.00 77 1029.5
20230129071812 -11 269 8.0 12.0 0.00 0.00 0.00 77 1029.5
20230129070741 -10 257 7.0 12.0 0.00 0.00 0.00 77 1029.6
20230129065724 -11 259 8.0 12.0 0.00 0.00 0.00 77 1029.7
20230129064715 -11 254 8.0 14.0 0.00 0.00 0.00 76 1029.7
20230129063732 -10 239 9.0 14.0 0.00 0.00 0.00 76 1029.9
20230129062745 -9 251 9.0 16.0 0.00 0.00 0.00 77 1029.8
20230129061753 -7 284 11.0 16.0 0.00 0.00 0.00 78 1029.9
20230129055628 -10 258 10.0 14.0 0.00 0.00 0.00 78 1030.2
20230129054631 -11 260 9.0 14.0 0.00 0.00 0.00 78 1030.2
20230129053559 -12 241 8.0 13.0 0.00 0.00 0.00 77 1030.1
20230129052614 -13 252 8.0 13.0 0.00 0.00 0.00 77 1030.2
20230129050504 -13 260 9.0 13.0 0.00 0.00 0.00 76 1030.3
20230129045504 -13 256 8.0 12.0 0.00 0.00 0.00 76 1030.4
20230129043254 -12 250 10.0 14.0 0.00 0.00 0.00 76 1030.5
20230129042250 -11 268 10.0 16.0 0.00 0.00 0.00 77 1030.6
20230129041247 -11 236 13.0 16.0 0.00 0.00 0.00 76 1030.6
20230129040302 -13 241 10.0 13.0 0.00 0.00 0.00 75 1030.6
20230129035251 -11 227 11.0 16.0 0.00 0.00 0.00 75 1030.6
20230129034227 -9 238 12.0 16.0 0.00 0.00 0.00 77 1030.6
20230129033240 -10 235 12.0 16.0 0.00 0.00 0.00 76 1030.7
20230129032215 -12 228 11.0 15.0 0.00 0.00 0.00 75 1030.7
20230129031148 -11 226 9.0 13.0 0.00 0.00 0.00 73 1030.8
20230129030150 -9 240 10.0 18.0 0.00 0.00 0.00 75 1030.9
20230129025144 -7 270 13.0 18.0 0.00 0.00 0.00 76 1030.9
20230129024200 -9 270 11.0 16.0 0.00 0.00 0.00 76 1031.0
20230129023208 -9 288 10.0 15.0 0.00 0.00 0.00 76 1031.0
20230129022219 -9 272 10.0 16.0 0.00 0.00 0.00 75 1030.9
20230129021219 -9 265 13.0 16.0 0.00 0.00 0.00 76 1030.8
20230129015134 -9 281 13.0 17.0 0.00 0.00 0.00 77 1031.1
20230129014133 -8 281 12.0 15.0 0.00 0.00 0.00 76 1031.2
20230129012030 -9 270 9.0 15.0 0.00 0.00 0.00 78 1031.4
20230129011053 -10 263 6.0 10.0 0.00 0.00 0.00 76 1031.4
20230129010043 -9 248 6.0 13.0 0.00 0.00 0.00 76 1031.5
20230129005100 -8 263 9.0 13.0 0.00 0.00 0.00 76 1031.5
20230129004055 -8 274 9.0 12.0 0.00 0.00 0.00 76 1031.4
20230129003023 -7 281 7.0 10.0 0.00 0.00 0.00 76 1031.4
20230129001949 -7 278 9.0 11.0 0.00 0.00 0.00 75 1031.5
20230129000932 -8 283 9.0 12.0 0.00 0.00 0.00 75 1031.5
20230128235937 -6 297 9.0 13.0 0.00 0.00 0.00 74 1031.5
20230128233833 -5 294 14.0 19.0 0.00 0.00 0.00 74 1031.7
20230128232826 -6 306 16.0 22.0 0.00 0.00 0.00 74 1031.7